sensor_id;sensor_type;location;lat;lon;timestamp;P1;durP1;ratioP1;P2;durP2;ratioP2
19456;SDS011;9867;48.094;11.478;2023-08-17T00:00:06;7.13;;;4.90;;
19456;SDS011;9867;48.094;11.478;2023-08-17T00:02:37;5.30;;;4.80;;
19456;SDS011;9867;48.094;11.478;2023-08-17T00:05:05;5.30;;;4.80;;
19456;SDS011;9867;48.094;11.478;2023-08-17T00:07:34;4.87;;;4.47;;
19456;SDS011;9867;48.094;11.478;2023-08-17T00:10:02;5.47;;;4.90;;
19456;SDS011;9867;48.094;11.478;2023-08-17T00:12:32;7.33;;;5.17;;
19456;SDS011;9867;48.094;11.478;2023-08-17T00:15:00;7.37;;;5.33;;
19456;SDS011;9867;48.094;11.478;2023-08-17T00:17:28;6.10;;;5.13;;
19456;SDS011;9867;48.094;11.478;2023-08-17T00:19:57;7.57;;;4.90;;
19456;SDS011;9867;48.094;11.478;2023-08-17T00:22:25;7.33;;;5.33;;
19456;SDS011;9867;48.094;11.478;2023-08-17T00:24:53;5.13;;;4.63;;
19456;SDS011;9867;48.094;11.478;2023-08-17T00:27:21;6.43;;;5.00;;
19456;SDS011;9867;48.094;11.478;2023-08-17T00:29:51;5.57;;;5.07;;
19456;SDS011;9867;48.094;11.478;2023-08-17T00:32:19;5.40;;;4.87;;
19456;SDS011;9867;48.094;11.478;2023-08-17T00:34:47;6.13;;;5.53;;
19456;SDS011;9867;48.094;11.478;2023-08-17T00:37:15;7.03;;;5.13;;
19456;SDS011;9867;48.094;11.478;2023-08-17T00:39:43;7.57;;;5.00;;
19456;SDS011;9867;48.094;11.478;2023-08-17T00:42:11;6.20;;;5.17;;
19456;SDS011;9867;48.094;11.478;2023-08-17T00:44:41;5.07;;;4.57;;
19456;SDS011;9867;48.094;11.478;2023-08-17T00:47:10;5.00;;;4.40;;
19456;SDS011;9867;48.094;11.478;2023-08-17T00:49:39;5.10;;;4.60;;
19456;SDS011;9867;48.094;11.478;2023-08-17T00:52:08;5.50;;;4.80;;
19456;SDS011;9867;48.094;11.478;2023-08-17T00:54:36;5.43;;;4.67;;
19456;SDS011;9867;48.094;11.478;2023-08-17T00:57:05;8.93;;;4.90;;
19456;SDS011;9867;48.094;11.478;2023-08-17T00:59:33;5.43;;;4.70;;
19456;SDS011;9867;48.094;11.478;2023-08-17T01:02:03;5.33;;;4.83;;
19456;SDS011;9867;48.094;11.478;2023-08-17T01:04:36;5.40;;;4.90;;
19456;SDS011;9867;48.094;11.478;2023-08-17T01:07:04;4.93;;;4.53;;
19456;SDS011;9867;48.094;11.478;2023-08-17T01:09:32;5.23;;;4.73;;
19456;SDS011;9867;48.094;11.478;2023-08-17T01:12:04;6.60;;;5.23;;
19456;SDS011;9867;48.094;11.478;2023-08-17T01:14:37;5.43;;;5.03;;
19456;SDS011;9867;48.094;11.478;2023-08-17T01:17:12;5.67;;;5.13;;
19456;SDS011;9867;48.094;11.478;2023-08-17T01:19:46;6.17;;;5.40;;
19456;SDS011;9867;48.094;11.478;2023-08-17T01:22:17;5.30;;;4.63;;
19456;SDS011;9867;48.094;11.478;2023-08-17T01:24:49;5.23;;;4.77;;
19456;SDS011;9867;48.094;11.478;2023-08-17T01:27:23;5.13;;;4.40;;
19456;SDS011;9867;48.094;11.478;2023-08-17T01:29:52;5.37;;;4.80;;
19456;SDS011;9867;48.094;11.478;2023-08-17T01:32:22;7.33;;;5.10;;
19456;SDS011;9867;48.094;11.478;2023-08-17T01:34:58;6.67;;;5.17;;
19456;SDS011;9867;48.094;11.478;2023-08-17T01:37:31;5.37;;;4.87;;
19456;SDS011;9867;48.094;11.478;2023-08-17T01:40:07;5.90;;;5.30;;
19456;SDS011;9867;48.094;11.478;2023-08-17T01:42:37;5.97;;;5.10;;
19456;SDS011;9867;48.094;11.478;2023-08-17T01:45:07;5.47;;;4.97;;
19456;SDS011;9867;48.094;11.478;2023-08-17T01:47:36;6.37;;;5.73;;
19456;SDS011;9867;48.094;11.478;2023-08-17T01:50:04;5.43;;;4.83;;
19456;SDS011;9867;48.094;11.478;2023-08-17T01:52:33;5.60;;;5.00;;
19456;SDS011;9867;48.094;11.478;2023-08-17T01:55:01;5.30;;;4.50;;
19456;SDS011;9867;48.094;11.478;2023-08-17T01:57:31;5.40;;;4.90;;
19456;SDS011;9867;48.094;11.478;2023-08-17T01:59:59;5.87;;;5.27;;
19456;SDS011;9867;48.094;11.478;2023-08-17T02:02:47;5.80;;;4.97;;
19456;SDS011;9867;48.094;11.478;2023-08-17T02:05:15;5.57;;;5.10;;
19456;SDS011;9867;48.094;11.478;2023-08-17T02:07:45;8.03;;;5.27;;
19456;SDS011;9867;48.094;11.478;2023-08-17T02:10:13;5.80;;;5.30;;
19456;SDS011;9867;48.094;11.478;2023-08-17T02:12:43;5.37;;;4.73;;
19456;SDS011;9867;48.094;11.478;2023-08-17T02:15:11;5.60;;;5.10;;
19456;SDS011;9867;48.094;11.478;2023-08-17T02:17:38;5.97;;;4.93;;
19456;SDS011;9867;48.094;11.478;2023-08-17T02:20:09;6.00;;;5.40;;
19456;SDS011;9867;48.094;11.478;2023-08-17T02:22:37;6.17;;;5.57;;
19456;SDS011;9867;48.094;11.478;2023-08-17T02:25:05;6.37;;;5.70;;
19456;SDS011;9867;48.094;11.478;2023-08-17T02:27:34;8.00;;;5.30;;
19456;SDS011;9867;48.094;11.478;2023-08-17T02:30:04;8.73;;;6.17;;
19456;SDS011;9867;48.094;11.478;2023-08-17T02:32:33;5.83;;;5.37;;
19456;SDS011;9867;48.094;11.478;2023-08-17T02:35:01;7.87;;;5.60;;
19456;SDS011;9867;48.094;11.478;2023-08-17T02:37:29;5.90;;;5.20;;
19456;SDS011;9867;48.094;11.478;2023-08-17T02:39:57;6.33;;;5.50;;
19456;SDS011;9867;48.094;11.478;2023-08-17T02:42:26;5.37;;;4.97;;
19456;SDS011;9867;48.094;11.478;2023-08-17T02:44:53;6.47;;;5.87;;
19456;SDS011;9867;48.094;11.478;2023-08-17T02:47:23;5.80;;;5.30;;
19456;SDS011;9867;48.094;11.478;2023-08-17T02:49:52;5.57;;;5.07;;
19456;SDS011;9867;48.094;11.478;2023-08-17T02:52:20;5.60;;;5.10;;
19456;SDS011;9867;48.094;11.478;2023-08-17T02:54:48;5.83;;;5.23;;
19456;SDS011;9867;48.094;11.478;2023-08-17T02:57:16;5.43;;;4.93;;
19456;SDS011;9867;48.094;11.478;2023-08-17T02:59:45;5.47;;;5.00;;
19456;SDS011;9867;48.094;11.478;2023-08-17T03:02:13;7.10;;;5.27;;
19456;SDS011;9867;48.094;11.478;2023-08-17T03:04:42;5.63;;;5.13;;
19456;SDS011;9867;48.094;11.478;2023-08-17T03:07:10;6.77;;;5.40;;
19456;SDS011;9867;48.094;11.478;2023-08-17T03:09:38;6.27;;;5.30;;
19456;SDS011;9867;48.094;11.478;2023-08-17T03:12:06;9.10;;;5.37;;
19456;SDS011;9867;48.094;11.478;2023-08-17T03:14:34;6.47;;;5.23;;
19456;SDS011;9867;48.094;11.478;2023-08-17T03:17:03;5.53;;;5.07;;
19456;SDS011;9867;48.094;11.478;2023-08-17T03:19:31;6.40;;;5.00;;
19456;SDS011;9867;48.094;11.478;2023-08-17T03:22:01;6.37;;;5.80;;
19456;SDS011;9867;48.094;11.478;2023-08-17T03:24:29;7.23;;;5.50;;
19456;SDS011;9867;48.094;11.478;2023-08-17T03:26:58;6.50;;;6.00;;
19456;SDS011;9867;48.094;11.478;2023-08-17T03:29:27;6.53;;;5.97;;
19456;SDS011;9867;48.094;11.478;2023-08-17T03:31:55;6.83;;;6.23;;
19456;SDS011;9867;48.094;11.478;2023-08-17T03:34:23;5.60;;;5.10;;
19456;SDS011;9867;48.094;11.478;2023-08-17T03:36:51;5.97;;;5.37;;
19456;SDS011;9867;48.094;11.478;2023-08-17T03:39:21;6.17;;;5.57;;
19456;SDS011;9867;48.094;11.478;2023-08-17T03:41:49;7.67;;;5.77;;
19456;SDS011;9867;48.094;11.478;2023-08-17T03:44:17;8.07;;;5.50;;
19456;SDS011;9867;48.094;11.478;2023-08-17T03:46:45;5.70;;;5.20;;
19456;SDS011;9867;48.094;11.478;2023-08-17T03:49:13;5.70;;;5.20;;
19456;SDS011;9867;48.094;11.478;2023-08-17T03:51:41;5.03;;;4.53;;
19456;SDS011;9867;48.094;11.478;2023-08-17T03:54:10;6.37;;;5.33;;
19456;SDS011;9867;48.094;11.478;2023-08-17T03:56:41;5.60;;;5.10;;
19456;SDS011;9867;48.094;11.478;2023-08-17T03:59:09;5.73;;;5.10;;
19456;SDS011;9867;48.094;11.478;2023-08-17T04:01:37;5.97;;;5.47;;
19456;SDS011;9867;48.094;11.478;2023-08-17T04:04:06;6.20;;;5.60;;
19456;SDS011;9867;48.094;11.478;2023-08-17T04:06:34;6.10;;;5.60;;
19456;SDS011;9867;48.094;11.478;2023-08-17T04:09:06;6.03;;;5.50;;
19456;SDS011;9867;48.094;11.478;2023-08-17T04:11:34;5.50;;;5.00;;
19456;SDS011;9867;48.094;11.478;2023-08-17T04:14:04;4.93;;;4.57;;
19456;SDS011;9867;48.094;11.478;2023-08-17T04:16:33;6.83;;;5.47;;
19456;SDS011;9867;48.094;11.478;2023-08-17T04:19:01;5.40;;;4.90;;
19456;SDS011;9867;48.094;11.478;2023-08-17T04:21:30;5.93;;;5.20;;
19456;SDS011;9867;48.094;11.478;2023-08-17T04:23:58;7.67;;;5.67;;
19456;SDS011;9867;48.094;11.478;2023-08-17T04:26:26;8.97;;;5.90;;
19456;SDS011;9867;48.094;11.478;2023-08-17T04:28:54;10.30;;;5.83;;
19456;SDS011;9867;48.094;11.478;2023-08-17T04:31:23;6.13;;;5.60;;
19456;SDS011;9867;48.094;11.478;2023-08-17T04:33:57;6.40;;;5.90;;
19456;SDS011;9867;48.094;11.478;2023-08-17T04:36:26;6.27;;;5.67;;
19456;SDS011;9867;48.094;11.478;2023-08-17T04:38:54;6.33;;;5.20;;
19456;SDS011;9867;48.094;11.478;2023-08-17T04:41:23;6.40;;;5.77;;
19456;SDS011;9867;48.094;11.478;2023-08-17T04:43:51;7.33;;;5.97;;
19456;SDS011;9867;48.094;11.478;2023-08-17T04:46:19;6.10;;;5.57;;
19456;SDS011;9867;48.094;11.478;2023-08-17T04:48:49;5.30;;;4.80;;
19456;SDS011;9867;48.094;11.478;2023-08-17T04:51:17;5.30;;;4.90;;
19456;SDS011;9867;48.094;11.478;2023-08-17T04:53:45;5.50;;;5.00;;
19456;SDS011;9867;48.094;11.478;2023-08-17T04:56:13;5.83;;;5.10;;
19456;SDS011;9867;48.094;11.478;2023-08-17T04:58:42;5.93;;;5.33;;
19456;SDS011;9867;48.094;11.478;2023-08-17T05:01:12;5.43;;;4.67;;
19456;SDS011;9867;48.094;11.478;2023-08-17T05:03:40;5.40;;;4.80;;
19456;SDS011;9867;48.094;11.478;2023-08-17T05:06:10;5.40;;;5.00;;
19456;SDS011;9867;48.094;11.478;2023-08-17T05:08:38;7.00;;;5.40;;
19456;SDS011;9867;48.094;11.478;2023-08-17T05:11:06;6.43;;;5.83;;
19456;SDS011;9867;48.094;11.478;2023-08-17T05:13:35;5.73;;;5.13;;
19456;SDS011;9867;48.094;11.478;2023-08-17T05:16:04;6.50;;;5.77;;
19456;SDS011;9867;48.094;11.478;2023-08-17T05:18:33;6.80;;;6.20;;
19456;SDS011;9867;48.094;11.478;2023-08-17T05:21:01;6.97;;;6.23;;
19456;SDS011;9867;48.094;11.478;2023-08-17T05:23:32;6.40;;;5.80;;
19456;SDS011;9867;48.094;11.478;2023-08-17T05:26:00;6.40;;;5.80;;
19456;SDS011;9867;48.094;11.478;2023-08-17T05:28:28;5.90;;;5.40;;
19456;SDS011;9867;48.094;11.478;2023-08-17T05:31:02;5.70;;;5.20;;
19456;SDS011;9867;48.094;11.478;2023-08-17T05:33:33;5.77;;;5.17;;
19456;SDS011;9867;48.094;11.478;2023-08-17T05:36:02;6.67;;;6.10;;
19456;SDS011;9867;48.094;11.478;2023-08-17T05:38:30;6.73;;;6.07;;
19456;SDS011;9867;48.094;11.478;2023-08-17T05:41:00;5.90;;;5.43;;
19456;SDS011;9867;48.094;11.478;2023-08-17T05:43:28;6.50;;;6.00;;
19456;SDS011;9867;48.094;11.478;2023-08-17T05:45:56;6.93;;;6.17;;
19456;SDS011;9867;48.094;11.478;2023-08-17T05:48:25;7.90;;;6.10;;
19456;SDS011;9867;48.094;11.478;2023-08-17T05:50:54;8.00;;;6.60;;
19456;SDS011;9867;48.094;11.478;2023-08-17T05:53:23;7.63;;;6.87;;
19456;SDS011;9867;48.094;11.478;2023-08-17T05:55:51;6.87;;;6.27;;
19456;SDS011;9867;48.094;11.478;2023-08-17T05:58:20;8.03;;;6.40;;
19456;SDS011;9867;48.094;11.478;2023-08-17T06:00:48;6.63;;;6.13;;
19456;SDS011;9867;48.094;11.478;2023-08-17T06:03:18;6.80;;;6.30;;
19456;SDS011;9867;48.094;11.478;2023-08-17T06:05:46;6.30;;;5.80;;
19456;SDS011;9867;48.094;11.478;2023-08-17T06:08:14;6.87;;;5.60;;
19456;SDS011;9867;48.094;11.478;2023-08-17T06:10:42;6.83;;;6.33;;
19456;SDS011;9867;48.094;11.478;2023-08-17T06:13:10;7.07;;;6.37;;
19456;SDS011;9867;48.094;11.478;2023-08-17T06:15:40;6.23;;;5.83;;
19456;SDS011;9867;48.094;11.478;2023-08-17T06:18:08;5.90;;;5.37;;
19456;SDS011;9867;48.094;11.478;2023-08-17T06:20:36;6.60;;;5.90;;
19456;SDS011;9867;48.094;11.478;2023-08-17T06:23:04;6.20;;;5.60;;
19456;SDS011;9867;48.094;11.478;2023-08-17T06:25:32;6.17;;;5.60;;
19456;SDS011;9867;48.094;11.478;2023-08-17T06:28:03;5.63;;;5.17;;
19456;SDS011;9867;48.094;11.478;2023-08-17T06:30:32;6.40;;;5.60;;
19456;SDS011;9867;48.094;11.478;2023-08-17T06:33:22;8.40;;;5.60;;
19456;SDS011;9867;48.094;11.478;2023-08-17T06:35:50;6.73;;;5.47;;
19456;SDS011;9867;48.094;11.478;2023-08-17T06:38:18;6.00;;;5.50;;
19456;SDS011;9867;48.094;11.478;2023-08-17T06:40:46;6.10;;;5.50;;
19456;SDS011;9867;48.094;11.478;2023-08-17T06:43:14;5.47;;;5.07;;
19456;SDS011;9867;48.094;11.478;2023-08-17T06:45:45;5.53;;;5.10;;
19456;SDS011;9867;48.094;11.478;2023-08-17T06:48:13;5.70;;;5.20;;
19456;SDS011;9867;48.094;11.478;2023-08-17T06:50:41;5.63;;;5.13;;
19456;SDS011;9867;48.094;11.478;2023-08-17T06:53:09;6.10;;;5.60;;
19456;SDS011;9867;48.094;11.478;2023-08-17T06:55:37;5.73;;;5.13;;
19456;SDS011;9867;48.094;11.478;2023-08-17T06:58:05;5.90;;;5.40;;
19456;SDS011;9867;48.094;11.478;2023-08-17T07:00:33;5.70;;;5.20;;
19456;SDS011;9867;48.094;11.478;2023-08-17T07:03:03;5.80;;;5.23;;
19456;SDS011;9867;48.094;11.478;2023-08-17T07:05:32;6.80;;;5.73;;
19456;SDS011;9867;48.094;11.478;2023-08-17T07:08:03;5.87;;;5.37;;
19456;SDS011;9867;48.094;11.478;2023-08-17T07:10:33;6.00;;;5.10;;
19456;SDS011;9867;48.094;11.478;2023-08-17T07:13:01;5.73;;;5.17;;
19456;SDS011;9867;48.094;11.478;2023-08-17T07:15:30;6.80;;;5.30;;
19456;SDS011;9867;48.094;11.478;2023-08-17T07:17:58;5.97;;;5.07;;
19456;SDS011;9867;48.094;11.478;2023-08-17T07:20:30;5.63;;;5.00;;
19456;SDS011;9867;48.094;11.478;2023-08-17T07:22:58;5.47;;;4.97;;
19456;SDS011;9867;48.094;11.478;2023-08-17T07:25:26;5.70;;;5.10;;
19456;SDS011;9867;48.094;11.478;2023-08-17T07:27:55;5.60;;;5.10;;
19456;SDS011;9867;48.094;11.478;2023-08-17T07:30:23;5.93;;;5.43;;
19456;SDS011;9867;48.094;11.478;2023-08-17T07:32:51;5.40;;;5.00;;
19456;SDS011;9867;48.094;11.478;2023-08-17T07:35:20;5.57;;;4.90;;
19456;SDS011;9867;48.094;11.478;2023-08-17T07:37:51;5.37;;;4.87;;
19456;SDS011;9867;48.094;11.478;2023-08-17T07:40:34;5.20;;;4.70;;
19456;SDS011;9867;48.094;11.478;2023-08-17T07:43:03;5.00;;;4.50;;
19456;SDS011;9867;48.094;11.478;2023-08-17T07:45:31;5.87;;;4.80;;
19456;SDS011;9867;48.094;11.478;2023-08-17T07:47:59;4.97;;;4.43;;
19456;SDS011;9867;48.094;11.478;2023-08-17T07:50:29;4.90;;;4.50;;
19456;SDS011;9867;48.094;11.478;2023-08-17T07:52:57;5.07;;;4.50;;
19456;SDS011;9867;48.094;11.478;2023-08-17T07:55:27;5.50;;;5.00;;
19456;SDS011;9867;48.094;11.478;2023-08-17T07:57:56;6.13;;;4.80;;
19456;SDS011;9867;48.094;11.478;2023-08-17T08:00:25;4.83;;;4.43;;
19456;SDS011;9867;48.094;11.478;2023-08-17T08:03:00;8.87;;;4.40;;
19456;SDS011;9867;48.094;11.478;2023-08-17T08:05:51;5.27;;;4.77;;
19456;SDS011;9867;48.094;11.478;2023-08-17T08:08:19;5.43;;;4.80;;
19456;SDS011;9867;48.094;11.478;2023-08-17T08:10:47;4.80;;;4.40;;
19456;SDS011;9867;48.094;11.478;2023-08-17T08:13:15;4.73;;;4.40;;
19456;SDS011;9867;48.094;11.478;2023-08-17T08:15:43;5.53;;;4.63;;
19456;SDS011;9867;48.094;11.478;2023-08-17T08:18:11;5.57;;;4.97;;
19456;SDS011;9867;48.094;11.478;2023-08-17T08:20:39;5.30;;;4.90;;
19456;SDS011;9867;48.094;11.478;2023-08-17T08:23:09;5.10;;;4.70;;
19456;SDS011;9867;48.094;11.478;2023-08-17T08:25:37;5.03;;;4.63;;
19456;SDS011;9867;48.094;11.478;2023-08-17T08:28:07;4.93;;;4.50;;
19456;SDS011;9867;48.094;11.478;2023-08-17T08:30:36;5.27;;;4.77;;
19456;SDS011;9867;48.094;11.478;2023-08-17T08:33:04;6.63;;;4.87;;
19456;SDS011;9867;48.094;11.478;2023-08-17T08:35:32;6.47;;;5.97;;
19456;SDS011;9867;48.094;11.478;2023-08-17T08:38:00;5.17;;;4.87;;
19456;SDS011;9867;48.094;11.478;2023-08-17T08:40:32;5.10;;;4.70;;
19456;SDS011;9867;48.094;11.478;2023-08-17T08:43:03;5.63;;;5.10;;
19456;SDS011;9867;48.094;11.478;2023-08-17T08:45:31;6.00;;;5.40;;
19456;SDS011;9867;48.094;11.478;2023-08-17T08:47:59;5.10;;;4.70;;
19456;SDS011;9867;48.094;11.478;2023-08-17T08:50:30;4.87;;;4.47;;
19456;SDS011;9867;48.094;11.478;2023-08-17T08:52:59;4.90;;;4.50;;
19456;SDS011;9867;48.094;11.478;2023-08-17T08:55:40;5.40;;;5.00;;
19456;SDS011;9867;48.094;11.478;2023-08-17T08:58:12;5.10;;;4.70;;
19456;SDS011;9867;48.094;11.478;2023-08-17T09:00:45;4.80;;;4.40;;
19456;SDS011;9867;48.094;11.478;2023-08-17T09:03:14;5.17;;;4.70;;
19456;SDS011;9867;48.094;11.478;2023-08-17T09:05:44;5.10;;;4.60;;
19456;SDS011;9867;48.094;11.478;2023-08-17T09:08:15;4.77;;;4.23;;
19456;SDS011;9867;48.094;11.478;2023-08-17T09:10:45;5.13;;;4.73;;
19456;SDS011;9867;48.094;11.478;2023-08-17T09:13:14;5.27;;;4.73;;
19456;SDS011;9867;48.094;11.478;2023-08-17T09:15:42;5.13;;;4.63;;
19456;SDS011;9867;48.094;11.478;2023-08-17T09:18:10;5.03;;;4.60;;
19456;SDS011;9867;48.094;11.478;2023-08-17T09:20:40;6.40;;;4.60;;
19456;SDS011;9867;48.094;11.478;2023-08-17T09:23:12;4.90;;;4.50;;
19456;SDS011;9867;48.094;11.478;2023-08-17T09:25:41;4.90;;;4.50;;
19456;SDS011;9867;48.094;11.478;2023-08-17T09:28:12;5.63;;;4.40;;
19456;SDS011;9867;48.094;11.478;2023-08-17T09:30:50;4.67;;;4.30;;
19456;SDS011;9867;48.094;11.478;2023-08-17T09:33:20;6.43;;;4.43;;
19456;SDS011;9867;48.094;11.478;2023-08-17T09:35:49;6.07;;;4.73;;
19456;SDS011;9867;48.094;11.478;2023-08-17T09:38:17;5.13;;;4.70;;
19456;SDS011;9867;48.094;11.478;2023-08-17T09:40:45;5.00;;;4.60;;
19456;SDS011;9867;48.094;11.478;2023-08-17T09:43:15;5.13;;;4.57;;
19456;SDS011;9867;48.094;11.478;2023-08-17T09:45:45;4.90;;;4.50;;
19456;SDS011;9867;48.094;11.478;2023-08-17T09:48:14;5.33;;;4.23;;
19456;SDS011;9867;48.094;11.478;2023-08-17T09:50:44;5.33;;;4.40;;
19456;SDS011;9867;48.094;11.478;2023-08-17T09:53:13;4.87;;;4.40;;
19456;SDS011;9867;48.094;11.478;2023-08-17T09:55:41;4.53;;;4.13;;
19456;SDS011;9867;48.094;11.478;2023-08-17T09:58:10;5.17;;;4.77;;
19456;SDS011;9867;48.094;11.478;2023-08-17T10:00:44;4.63;;;4.27;;
19456;SDS011;9867;48.094;11.478;2023-08-17T10:03:18;4.13;;;3.83;;
19456;SDS011;9867;48.094;11.478;2023-08-17T10:05:48;5.60;;;4.33;;
19456;SDS011;9867;48.094;11.478;2023-08-17T10:08:22;3.90;;;3.70;;
19456;SDS011;9867;48.094;11.478;2023-08-17T10:10:50;4.80;;;4.40;;
19456;SDS011;9867;48.094;11.478;2023-08-17T10:13:24;6.10;;;3.90;;
19456;SDS011;9867;48.094;11.478;2023-08-17T10:16:02;4.50;;;3.80;;
19456;SDS011;9867;48.094;11.478;2023-08-17T10:18:37;6.23;;;4.07;;
19456;SDS011;9867;48.094;11.478;2023-08-17T10:21:13;3.97;;;3.70;;
19456;SDS011;9867;48.094;11.478;2023-08-17T10:23:45;4.17;;;3.87;;
19456;SDS011;9867;48.094;11.478;2023-08-17T10:26:13;4.10;;;3.70;;
19456;SDS011;9867;48.094;11.478;2023-08-17T10:28:42;4.40;;;4.00;;
19456;SDS011;9867;48.094;11.478;2023-08-17T10:31:12;3.40;;;3.20;;
19456;SDS011;9867;48.094;11.478;2023-08-17T10:33:41;3.83;;;3.53;;
19456;SDS011;9867;48.094;11.478;2023-08-17T10:36:12;4.43;;;3.67;;
19456;SDS011;9867;48.094;11.478;2023-08-17T10:38:41;7.10;;;3.70;;
19456;SDS011;9867;48.094;11.478;2023-08-17T10:41:10;3.40;;;3.17;;
19456;SDS011;9867;48.094;11.478;2023-08-17T10:43:56;3.77;;;3.47;;
19456;SDS011;9867;48.094;11.478;2023-08-17T10:46:36;4.00;;;3.60;;
19456;SDS011;9867;48.094;11.478;2023-08-17T10:49:06;3.90;;;3.50;;
19456;SDS011;9867;48.094;11.478;2023-08-17T10:52:01;3.60;;;3.30;;
19456;SDS011;9867;48.094;11.478;2023-08-17T10:54:36;4.00;;;3.37;;
19456;SDS011;9867;48.094;11.478;2023-08-17T11:02:54;3.60;;;3.30;;
19456;SDS011;9867;48.094;11.478;2023-08-17T11:05:38;5.80;;;3.40;;
19456;SDS011;9867;48.094;11.478;2023-08-17T11:08:08;5.20;;;3.30;;
19456;SDS011;9867;48.094;11.478;2023-08-17T11:10:38;3.63;;;3.30;;
19456;SDS011;9867;48.094;11.478;2023-08-17T11:13:06;3.90;;;3.07;;
19456;SDS011;9867;48.094;11.478;2023-08-17T11:15:34;3.63;;;3.30;;
19456;SDS011;9867;48.094;11.478;2023-08-17T11:18:07;3.57;;;3.27;;
19456;SDS011;9867;48.094;11.478;2023-08-17T11:20:36;3.70;;;3.30;;
19456;SDS011;9867;48.094;11.478;2023-08-17T11:23:06;3.90;;;3.40;;
19456;SDS011;9867;48.094;11.478;2023-08-17T11:25:35;4.07;;;3.20;;
19456;SDS011;9867;48.094;11.478;2023-08-17T11:28:05;3.57;;;3.23;;
19456;SDS011;9867;48.094;11.478;2023-08-17T11:30:35;5.30;;;3.43;;
19456;SDS011;9867;48.094;11.478;2023-08-17T11:33:07;4.17;;;3.13;;
19456;SDS011;9867;48.094;11.478;2023-08-17T11:35:35;3.43;;;2.80;;
19456;SDS011;9867;48.094;11.478;2023-08-17T11:38:03;3.83;;;3.23;;
19456;SDS011;9867;48.094;11.478;2023-08-17T11:40:34;3.40;;;3.10;;
19456;SDS011;9867;48.094;11.478;2023-08-17T11:43:03;4.87;;;3.13;;
19456;SDS011;9867;48.094;11.478;2023-08-17T11:45:31;3.70;;;3.40;;
19456;SDS011;9867;48.094;11.478;2023-08-17T11:48:00;3.53;;;3.17;;
19456;SDS011;9867;48.094;11.478;2023-08-17T11:50:29;3.30;;;3.10;;
19456;SDS011;9867;48.094;11.478;2023-08-17T11:52:58;3.87;;;3.47;;
19456;SDS011;9867;48.094;11.478;2023-08-17T11:55:27;3.47;;;3.17;;
19456;SDS011;9867;48.094;11.478;2023-08-17T11:57:55;3.03;;;2.73;;
19456;SDS011;9867;48.094;11.478;2023-08-17T12:00:23;4.27;;;3.13;;
19456;SDS011;9867;48.094;11.478;2023-08-17T12:02:52;4.73;;;3.47;;
19456;SDS011;9867;48.094;11.478;2023-08-17T12:05:21;4.00;;;3.60;;
19456;SDS011;9867;48.094;11.478;2023-08-17T12:07:52;3.70;;;3.40;;
19456;SDS011;9867;48.094;11.478;2023-08-17T12:10:20;3.27;;;3.07;;
19456;SDS011;9867;48.094;11.478;2023-08-17T12:12:50;3.20;;;3.00;;
19456;SDS011;9867;48.094;11.478;2023-08-17T12:15:18;3.30;;;3.10;;
19456;SDS011;9867;48.094;11.478;2023-08-17T12:17:48;3.67;;;3.37;;
19456;SDS011;9867;48.094;11.478;2023-08-17T12:20:19;3.77;;;3.47;;
19456;SDS011;9867;48.094;11.478;2023-08-17T12:22:48;6.33;;;3.03;;
19456;SDS011;9867;48.094;11.478;2023-08-17T12:25:17;3.30;;;3.00;;
19456;SDS011;9867;48.094;11.478;2023-08-17T12:27:48;4.43;;;3.20;;
19456;SDS011;9867;48.094;11.478;2023-08-17T12:30:26;6.13;;;4.10;;
19456;SDS011;9867;48.094;11.478;2023-08-17T12:32:55;3.90;;;3.50;;
19456;SDS011;9867;48.094;11.478;2023-08-17T12:35:24;5.20;;;3.23;;
19456;SDS011;9867;48.094;11.478;2023-08-17T12:37:53;4.87;;;3.27;;
19456;SDS011;9867;48.094;11.478;2023-08-17T12:40:23;5.53;;;3.60;;
19456;SDS011;9867;48.094;11.478;2023-08-17T12:42:51;3.90;;;3.60;;
19456;SDS011;9867;48.094;11.478;2023-08-17T12:45:19;5.57;;;3.70;;
19456;SDS011;9867;48.094;11.478;2023-08-17T12:47:47;4.30;;;3.67;;
19456;SDS011;9867;48.094;11.478;2023-08-17T12:50:15;4.00;;;3.70;;
19456;SDS011;9867;48.094;11.478;2023-08-17T12:52:43;3.80;;;3.50;;
19456;SDS011;9867;48.094;11.478;2023-08-17T12:55:13;3.77;;;3.40;;
19456;SDS011;9867;48.094;11.478;2023-08-17T12:57:42;5.30;;;3.17;;
19456;SDS011;9867;48.094;11.478;2023-08-17T13:00:11;3.87;;;3.30;;
19456;SDS011;9867;48.094;11.478;2023-08-17T13:02:39;4.07;;;3.30;;
19456;SDS011;9867;48.094;11.478;2023-08-17T13:05:07;4.10;;;3.73;;
19456;SDS011;9867;48.094;11.478;2023-08-17T13:07:35;4.30;;;3.90;;
19456;SDS011;9867;48.094;11.478;2023-08-17T13:10:04;4.67;;;4.00;;
19456;SDS011;9867;48.094;11.478;2023-08-17T13:12:32;6.07;;;3.70;;
19456;SDS011;9867;48.094;11.478;2023-08-17T13:15:01;5.07;;;4.33;;
19456;SDS011;9867;48.094;11.478;2023-08-17T13:17:30;5.50;;;3.77;;
19456;SDS011;9867;48.094;11.478;2023-08-17T13:19:58;6.00;;;3.90;;
19456;SDS011;9867;48.094;11.478;2023-08-17T13:22:26;4.90;;;4.33;;
19456;SDS011;9867;48.094;11.478;2023-08-17T13:24:54;4.17;;;3.77;;
19456;SDS011;9867;48.094;11.478;2023-08-17T13:27:22;4.73;;;3.87;;
19456;SDS011;9867;48.094;11.478;2023-08-17T13:29:50;4.33;;;3.93;;
19456;SDS011;9867;48.094;11.478;2023-08-17T13:32:20;7.07;;;3.60;;
19456;SDS011;9867;48.094;11.478;2023-08-17T13:34:48;3.83;;;3.50;;
19456;SDS011;9867;48.094;11.478;2023-08-17T13:37:17;5.77;;;3.67;;
19456;SDS011;9867;48.094;11.478;2023-08-17T13:39:45;8.73;;;4.10;;
19456;SDS011;9867;48.094;11.478;2023-08-17T13:42:14;4.23;;;3.80;;
19456;SDS011;9867;48.094;11.478;2023-08-17T13:44:42;3.53;;;3.23;;
19456;SDS011;9867;48.094;11.478;2023-08-17T13:47:10;5.20;;;3.97;;
19456;SDS011;9867;48.094;11.478;2023-08-17T13:49:39;4.60;;;4.10;;
19456;SDS011;9867;48.094;11.478;2023-08-17T13:52:07;5.43;;;4.20;;
19456;SDS011;9867;48.094;11.478;2023-08-17T13:54:35;4.57;;;3.70;;
19456;SDS011;9867;48.094;11.478;2023-08-17T13:57:03;6.63;;;4.10;;
19456;SDS011;9867;48.094;11.478;2023-08-17T13:59:31;4.20;;;3.73;;
19456;SDS011;9867;48.094;11.478;2023-08-17T14:01:59;4.30;;;3.90;;
19456;SDS011;9867;48.094;11.478;2023-08-17T14:04:28;5.67;;;4.07;;
19456;SDS011;9867;48.094;11.478;2023-08-17T14:06:57;4.20;;;3.70;;
19456;SDS011;9867;48.094;11.478;2023-08-17T14:09:25;3.93;;;3.40;;
19456;SDS011;9867;48.094;11.478;2023-08-17T14:11:53;4.33;;;4.03;;
19456;SDS011;9867;48.094;11.478;2023-08-17T14:14:21;6.53;;;4.10;;
19456;SDS011;9867;48.094;11.478;2023-08-17T14:16:49;4.27;;;3.87;;
19456;SDS011;9867;48.094;11.478;2023-08-17T14:19:18;17.37;;;4.67;;
19456;SDS011;9867;48.094;11.478;2023-08-17T14:21:46;3.87;;;3.63;;
19456;SDS011;9867;48.094;11.478;2023-08-17T14:24:15;5.57;;;3.77;;
19456;SDS011;9867;48.094;11.478;2023-08-17T14:26:43;7.33;;;3.63;;
19456;SDS011;9867;48.094;11.478;2023-08-17T14:29:11;4.70;;;3.90;;
19456;SDS011;9867;48.094;11.478;2023-08-17T14:31:39;3.90;;;3.50;;
19456;SDS011;9867;48.094;11.478;2023-08-17T14:34:07;3.83;;;3.50;;
19456;SDS011;9867;48.094;11.478;2023-08-17T14:36:37;4.40;;;3.80;;
19456;SDS011;9867;48.094;11.478;2023-08-17T14:39:05;6.03;;;3.70;;
19456;SDS011;9867;48.094;11.478;2023-08-17T14:41:35;10.63;;;4.17;;
19456;SDS011;9867;48.094;11.478;2023-08-17T14:44:03;3.97;;;3.40;;
19456;SDS011;9867;48.094;11.478;2023-08-17T14:46:31;11.23;;;3.80;;
19456;SDS011;9867;48.094;11.478;2023-08-17T14:48:59;5.63;;;3.30;;
19456;SDS011;9867;48.094;11.478;2023-08-17T14:51:28;4.20;;;3.70;;
19456;SDS011;9867;48.094;11.478;2023-08-17T14:53:57;5.50;;;3.97;;
19456;SDS011;9867;48.094;11.478;2023-08-17T14:56:25;5.80;;;4.00;;
19456;SDS011;9867;48.094;11.478;2023-08-17T14:58:54;4.60;;;4.20;;
19456;SDS011;9867;48.094;11.478;2023-08-17T15:01:22;6.00;;;4.10;;
19456;SDS011;9867;48.094;11.478;2023-08-17T15:03:50;7.10;;;3.90;;
19456;SDS011;9867;48.094;11.478;2023-08-17T15:06:18;4.60;;;4.17;;